sensor_id;sensor_type;location;lat;lon;timestamp;P1;durP1;ratioP1;P2;durP2;ratioP2
79149;SDS011;68563;45.644;13.782;2023-09-19T00:02:14;12.38;;;6.60;;
79149;SDS011;68563;45.644;13.782;2023-09-19T00:04:39;18.13;;;6.93;;
79149;SDS011;68563;45.644;13.782;2023-09-19T00:07:05;15.40;;;6.30;;
79149;SDS011;68563;45.644;13.782;2023-09-19T00:09:30;14.85;;;6.70;;
79149;SDS011;68563;45.644;13.782;2023-09-19T00:12:02;21.00;;;6.65;;
79149;SDS011;68563;45.644;13.782;2023-09-19T00:14:31;17.00;;;7.03;;
79149;SDS011;68563;45.644;13.782;2023-09-19T00:16:59;25.95;;;6.72;;
79149;SDS011;68563;45.644;13.782;2023-09-19T00:19:25;24.40;;;7.65;;
79149;SDS011;68563;45.644;13.782;2023-09-19T00:21:51;18.65;;;6.22;;
79149;SDS011;68563;45.644;13.782;2023-09-19T00:24:18;19.73;;;6.20;;
79149;SDS011;68563;45.644;13.782;2023-09-19T00:26:44;20.30;;;6.50;;
79149;SDS011;68563;45.644;13.782;2023-09-19T00:29:12;19.58;;;5.88;;
79149;SDS011;68563;45.644;13.782;2023-09-19T00:31:43;18.25;;;6.72;;
79149;SDS011;68563;45.644;13.782;2023-09-19T00:34:08;16.75;;;6.03;;
79149;SDS011;68563;45.644;13.782;2023-09-19T00:36:35;20.75;;;6.80;;
79149;SDS011;68563;45.644;13.782;2023-09-19T00:39:03;24.52;;;5.80;;
79149;SDS011;68563;45.644;13.782;2023-09-19T00:41:31;20.48;;;6.20;;
79149;SDS011;68563;45.644;13.782;2023-09-19T00:43:56;20.75;;;6.20;;
79149;SDS011;68563;45.644;13.782;2023-09-19T00:46:22;25.70;;;6.80;;
79149;SDS011;68563;45.644;13.782;2023-09-19T00:48:47;15.38;;;5.93;;
79149;SDS011;68563;45.644;13.782;2023-09-19T00:51:14;20.17;;;6.53;;
79149;SDS011;68563;45.644;13.782;2023-09-19T00:53:44;16.45;;;6.35;;
79149;SDS011;68563;45.644;13.782;2023-09-19T00:56:11;18.88;;;6.45;;
79149;SDS011;68563;45.644;13.782;2023-09-19T00:58:37;20.33;;;6.43;;
79149;SDS011;68563;45.644;13.782;2023-09-19T01:01:03;22.23;;;6.30;;
79149;SDS011;68563;45.644;13.782;2023-09-19T01:03:32;21.83;;;6.40;;
79149;SDS011;68563;45.644;13.782;2023-09-19T01:05:59;25.58;;;7.00;;
79149;SDS011;68563;45.644;13.782;2023-09-19T01:08:25;18.42;;;6.38;;
79149;SDS011;68563;45.644;13.782;2023-09-19T01:11:16;19.77;;;6.10;;
79149;SDS011;68563;45.644;13.782;2023-09-19T01:17:13;20.45;;;5.65;;
79149;SDS011;68563;45.644;13.782;2023-09-19T01:20:03;21.85;;;6.38;;
79149;SDS011;68563;45.644;13.782;2023-09-19T01:31:03;31.73;;;6.47;;
79149;SDS011;68563;45.644;13.782;2023-09-19T01:36:22;23.98;;;6.68;;
79149;SDS011;68563;45.644;13.782;2023-09-19T01:38:48;22.60;;;6.30;;
79149;SDS011;68563;45.644;13.782;2023-09-19T01:41:13;27.27;;;6.90;;
79149;SDS011;68563;45.644;13.782;2023-09-19T01:43:47;20.23;;;6.47;;
79149;SDS011;68563;45.644;13.782;2023-09-19T01:46:24;26.38;;;6.55;;
79149;SDS011;68563;45.644;13.782;2023-09-19T01:49:04;30.25;;;6.45;;
79149;SDS011;68563;45.644;13.782;2023-09-19T01:51:37;21.48;;;6.35;;
79149;SDS011;68563;45.644;13.782;2023-09-19T01:54:30;30.90;;;5.85;;
79149;SDS011;68563;45.644;13.782;2023-09-19T01:59:45;25.13;;;7.25;;
79149;SDS011;68563;45.644;13.782;2023-09-19T02:02:36;21.00;;;6.57;;
79149;SDS011;68563;45.644;13.782;2023-09-19T02:05:03;31.73;;;6.50;;
79149;SDS011;68563;45.644;13.782;2023-09-19T02:07:29;25.52;;;6.15;;
79149;SDS011;68563;45.644;13.782;2023-09-19T02:09:57;22.75;;;6.43;;
79149;SDS011;68563;45.644;13.782;2023-09-19T02:12:25;25.35;;;6.43;;
79149;SDS011;68563;45.644;13.782;2023-09-19T02:14:51;25.27;;;6.40;;
79149;SDS011;68563;45.644;13.782;2023-09-19T02:17:16;27.48;;;5.93;;
79149;SDS011;68563;45.644;13.782;2023-09-19T02:19:42;29.70;;;6.55;;
79149;SDS011;68563;45.644;13.782;2023-09-19T02:22:08;28.95;;;6.78;;
79149;SDS011;68563;45.644;13.782;2023-09-19T02:24:35;28.77;;;6.88;;
79149;SDS011;68563;45.644;13.782;2023-09-19T02:27:04;28.08;;;6.20;;
79149;SDS011;68563;45.644;13.782;2023-09-19T02:29:30;24.55;;;6.78;;
79149;SDS011;68563;45.644;13.782;2023-09-19T02:31:55;30.45;;;6.93;;
79149;SDS011;68563;45.644;13.782;2023-09-19T02:34:21;29.40;;;6.53;;
79149;SDS011;68563;45.644;13.782;2023-09-19T02:36:47;29.70;;;7.03;;
79149;SDS011;68563;45.644;13.782;2023-09-19T02:39:13;26.27;;;6.63;;
79149;SDS011;68563;45.644;13.782;2023-09-19T02:41:38;25.77;;;5.97;;
79149;SDS011;68563;45.644;13.782;2023-09-19T02:44:04;26.85;;;6.60;;
79149;SDS011;68563;45.644;13.782;2023-09-19T02:46:32;33.38;;;7.22;;
79149;SDS011;68563;45.644;13.782;2023-09-19T02:49:04;25.73;;;6.13;;
79149;SDS011;68563;45.644;13.782;2023-09-19T02:51:32;25.30;;;6.25;;
79149;SDS011;68563;45.644;13.782;2023-09-19T02:53:59;26.15;;;5.97;;
79149;SDS011;68563;45.644;13.782;2023-09-19T02:56:24;35.63;;;7.05;;
79149;SDS011;68563;45.644;13.782;2023-09-19T02:58:50;25.08;;;6.70;;
79149;SDS011;68563;45.644;13.782;2023-09-19T03:01:16;26.42;;;6.55;;
79149;SDS011;68563;45.644;13.782;2023-09-19T03:03:43;20.33;;;5.90;;
79149;SDS011;68563;45.644;13.782;2023-09-19T03:06:10;26.98;;;7.32;;
79149;SDS011;68563;45.644;13.782;2023-09-19T03:08:37;23.33;;;6.13;;
79149;SDS011;68563;45.644;13.782;2023-09-19T03:11:04;23.33;;;6.40;;
79149;SDS011;68563;45.644;13.782;2023-09-19T03:13:34;30.13;;;6.65;;
79149;SDS011;68563;45.644;13.782;2023-09-19T03:16:02;29.85;;;6.75;;
79149;SDS011;68563;45.644;13.782;2023-09-19T03:18:30;27.95;;;6.85;;
79149;SDS011;68563;45.644;13.782;2023-09-19T03:20:59;28.05;;;6.80;;
79149;SDS011;68563;45.644;13.782;2023-09-19T03:23:25;25.52;;;6.93;;
79149;SDS011;68563;45.644;13.782;2023-09-19T03:25:52;30.05;;;7.25;;
79149;SDS011;68563;45.644;13.782;2023-09-19T03:28:18;24.55;;;6.60;;
79149;SDS011;68563;45.644;13.782;2023-09-19T03:30:45;30.58;;;7.32;;
79149;SDS011;68563;45.644;13.782;2023-09-19T03:33:11;24.70;;;6.97;;
79149;SDS011;68563;45.644;13.782;2023-09-19T03:35:37;25.35;;;6.60;;
79149;SDS011;68563;45.644;13.782;2023-09-19T03:38:03;24.75;;;6.00;;
79149;SDS011;68563;45.644;13.782;2023-09-19T03:40:29;29.13;;;7.10;;
79149;SDS011;68563;45.644;13.782;2023-09-19T03:42:55;32.92;;;7.00;;
79149;SDS011;68563;45.644;13.782;2023-09-19T03:45:20;29.55;;;7.13;;
79149;SDS011;68563;45.644;13.782;2023-09-19T03:47:45;27.38;;;6.25;;
79149;SDS011;68563;45.644;13.782;2023-09-19T03:50:12;27.77;;;7.53;;
79149;SDS011;68563;45.644;13.782;2023-09-19T03:52:42;34.03;;;7.15;;
79149;SDS011;68563;45.644;13.782;2023-09-19T03:55:10;21.92;;;6.57;;
79149;SDS011;68563;45.644;13.782;2023-09-19T03:57:35;28.95;;;6.90;;
79149;SDS011;68563;45.644;13.782;2023-09-19T04:00:01;29.80;;;6.18;;
79149;SDS011;68563;45.644;13.782;2023-09-19T04:02:27;27.48;;;5.97;;
79149;SDS011;68563;45.644;13.782;2023-09-19T04:04:58;27.63;;;7.07;;
79149;SDS011;68563;45.644;13.782;2023-09-19T04:07:23;23.08;;;6.68;;
79149;SDS011;68563;45.644;13.782;2023-09-19T04:09:51;33.30;;;7.03;;
79149;SDS011;68563;45.644;13.782;2023-09-19T04:12:18;29.95;;;6.60;;
79149;SDS011;68563;45.644;13.782;2023-09-19T04:14:44;29.35;;;6.95;;
79149;SDS011;68563;45.644;13.782;2023-09-19T04:17:09;23.73;;;6.55;;
79149;SDS011;68563;45.644;13.782;2023-09-19T04:19:35;26.15;;;6.72;;
79149;SDS011;68563;45.644;13.782;2023-09-19T04:22:01;29.48;;;6.82;;
79149;SDS011;68563;45.644;13.782;2023-09-19T04:24:27;21.02;;;6.97;;
79149;SDS011;68563;45.644;13.782;2023-09-19T04:26:53;32.50;;;7.43;;
79149;SDS011;68563;45.644;13.782;2023-09-19T04:29:18;31.55;;;6.63;;
79149;SDS011;68563;45.644;13.782;2023-09-19T04:31:45;20.55;;;6.05;;
79149;SDS011;68563;45.644;13.782;2023-09-19T04:34:11;20.27;;;5.68;;
79149;SDS011;68563;45.644;13.782;2023-09-19T04:36:42;27.55;;;6.22;;
79149;SDS011;68563;45.644;13.782;2023-09-19T04:39:08;30.13;;;6.82;;
79149;SDS011;68563;45.644;13.782;2023-09-19T04:41:35;24.20;;;6.22;;
79149;SDS011;68563;45.644;13.782;2023-09-19T04:44:04;23.83;;;6.53;;
79149;SDS011;68563;45.644;13.782;2023-09-19T04:46:30;21.50;;;5.85;;
79149;SDS011;68563;45.644;13.782;2023-09-19T04:48:55;29.10;;;6.95;;
79149;SDS011;68563;45.644;13.782;2023-09-19T04:51:20;25.02;;;6.13;;
79149;SDS011;68563;45.644;13.782;2023-09-19T04:53:46;30.40;;;6.65;;
79149;SDS011;68563;45.644;13.782;2023-09-19T04:56:12;22.83;;;7.30;;
79149;SDS011;68563;45.644;13.782;2023-09-19T04:58:38;18.73;;;6.10;;
79149;SDS011;68563;45.644;13.782;2023-09-19T05:01:03;31.73;;;6.20;;
79149;SDS011;68563;45.644;13.782;2023-09-19T05:03:29;26.67;;;6.40;;
79149;SDS011;68563;45.644;13.782;2023-09-19T05:05:55;22.17;;;5.78;;
79149;SDS011;68563;45.644;13.782;2023-09-19T05:08:20;24.70;;;7.45;;
79149;SDS011;68563;45.644;13.782;2023-09-19T05:10:47;27.52;;;7.05;;
79149;SDS011;68563;45.644;13.782;2023-09-19T05:13:13;23.08;;;6.63;;
79149;SDS011;68563;45.644;13.782;2023-09-19T05:15:39;27.77;;;6.60;;
79149;SDS011;68563;45.644;13.782;2023-09-19T05:18:04;27.33;;;6.50;;
79149;SDS011;68563;45.644;13.782;2023-09-19T05:20:31;24.85;;;5.90;;
79149;SDS011;68563;45.644;13.782;2023-09-19T05:23:03;32.15;;;6.82;;
79149;SDS011;68563;45.644;13.782;2023-09-19T05:25:36;24.98;;;6.65;;
79149;SDS011;68563;45.644;13.782;2023-09-19T05:28:03;19.33;;;5.78;;
79149;SDS011;68563;45.644;13.782;2023-09-19T05:30:31;25.13;;;6.55;;
79149;SDS011;68563;45.644;13.782;2023-09-19T05:32:57;24.35;;;5.95;;
79149;SDS011;68563;45.644;13.782;2023-09-19T05:35:23;24.85;;;6.53;;
79149;SDS011;68563;45.644;13.782;2023-09-19T05:37:52;23.25;;;6.38;;
79149;SDS011;68563;45.644;13.782;2023-09-19T05:40:18;24.48;;;6.50;;
79149;SDS011;68563;45.644;13.782;2023-09-19T05:42:44;27.83;;;6.95;;
79149;SDS011;68563;45.644;13.782;2023-09-19T05:45:10;33.47;;;6.53;;
79149;SDS011;68563;45.644;13.782;2023-09-19T05:47:42;27.63;;;6.75;;
79149;SDS011;68563;45.644;13.782;2023-09-19T05:50:10;23.90;;;6.35;;
79149;SDS011;68563;45.644;13.782;2023-09-19T05:52:36;23.33;;;6.68;;
79149;SDS011;68563;45.644;13.782;2023-09-19T05:55:06;27.50;;;6.20;;
79149;SDS011;68563;45.644;13.782;2023-09-19T05:57:35;30.45;;;7.55;;
79149;SDS011;68563;45.644;13.782;2023-09-19T06:00:01;25.65;;;6.80;;
79149;SDS011;68563;45.644;13.782;2023-09-19T06:02:26;25.88;;;6.85;;
79149;SDS011;68563;45.644;13.782;2023-09-19T06:04:54;22.85;;;5.65;;
79149;SDS011;68563;45.644;13.782;2023-09-19T06:07:20;26.05;;;6.40;;
79149;SDS011;68563;45.644;13.782;2023-09-19T06:09:48;22.67;;;6.25;;
79149;SDS011;68563;45.644;13.782;2023-09-19T06:12:13;22.05;;;6.38;;
79149;SDS011;68563;45.644;13.782;2023-09-19T06:14:42;21.92;;;6.68;;
79149;SDS011;68563;45.644;13.782;2023-09-19T06:17:08;26.48;;;6.60;;
79149;SDS011;68563;45.644;13.782;2023-09-19T06:19:34;22.90;;;5.72;;
79149;SDS011;68563;45.644;13.782;2023-09-19T06:21:59;19.85;;;6.00;;
79149;SDS011;68563;45.644;13.782;2023-09-19T06:24:24;21.38;;;6.15;;
79149;SDS011;68563;45.644;13.782;2023-09-19T06:26:50;21.92;;;5.75;;
79149;SDS011;68563;45.644;13.782;2023-09-19T06:29:17;25.65;;;6.70;;
79149;SDS011;68563;45.644;13.782;2023-09-19T06:31:43;25.73;;;6.07;;
79149;SDS011;68563;45.644;13.782;2023-09-19T06:34:09;22.42;;;5.85;;
79149;SDS011;68563;45.644;13.782;2023-09-19T06:36:35;28.98;;;6.45;;
79149;SDS011;68563;45.644;13.782;2023-09-19T06:39:01;22.33;;;6.47;;
79149;SDS011;68563;45.644;13.782;2023-09-19T06:41:29;31.50;;;6.78;;
79149;SDS011;68563;45.644;13.782;2023-09-19T06:43:55;26.77;;;6.10;;
79149;SDS011;68563;45.644;13.782;2023-09-19T06:46:20;21.10;;;5.82;;
79149;SDS011;68563;45.644;13.782;2023-09-19T06:48:45;27.92;;;6.07;;
79149;SDS011;68563;45.644;13.782;2023-09-19T06:51:12;26.05;;;5.90;;
79149;SDS011;68563;45.644;13.782;2023-09-19T06:53:41;26.23;;;5.90;;
79149;SDS011;68563;45.644;13.782;2023-09-19T06:56:07;21.77;;;5.82;;
79149;SDS011;68563;45.644;13.782;2023-09-19T06:58:32;25.92;;;5.50;;
79149;SDS011;68563;45.644;13.782;2023-09-19T07:00:58;21.83;;;6.03;;
79149;SDS011;68563;45.644;13.782;2023-09-19T07:03:23;26.10;;;6.15;;
79149;SDS011;68563;45.644;13.782;2023-09-19T07:05:51;23.85;;;5.82;;
79149;SDS011;68563;45.644;13.782;2023-09-19T07:08:17;21.35;;;5.70;;
79149;SDS011;68563;45.644;13.782;2023-09-19T07:10:45;23.85;;;5.47;;
79149;SDS011;68563;45.644;13.782;2023-09-19T07:13:13;23.02;;;5.35;;
79149;SDS011;68563;45.644;13.782;2023-09-19T07:15:41;14.00;;;4.95;;
79149;SDS011;68563;45.644;13.782;2023-09-19T07:18:15;27.95;;;6.43;;
79149;SDS011;68563;45.644;13.782;2023-09-19T07:20:41;29.52;;;5.78;;
79149;SDS011;68563;45.644;13.782;2023-09-19T07:25:43;17.63;;;5.05;;
79149;SDS011;68563;45.644;13.782;2023-09-19T07:28:09;22.45;;;5.72;;
79149;SDS011;68563;45.644;13.782;2023-09-19T07:30:37;19.58;;;5.80;;
79149;SDS011;68563;45.644;13.782;2023-09-19T07:35:30;25.42;;;5.15;;
79149;SDS011;68563;45.644;13.782;2023-09-19T07:37:56;17.45;;;4.75;;
79149;SDS011;68563;45.644;13.782;2023-09-19T07:40:26;21.63;;;5.10;;
79149;SDS011;68563;45.644;13.782;2023-09-19T07:42:53;21.55;;;6.13;;
79149;SDS011;68563;45.644;13.782;2023-09-19T07:45:21;19.65;;;6.22;;
79149;SDS011;68563;45.644;13.782;2023-09-19T07:47:47;23.08;;;7.13;;
79149;SDS011;68563;45.644;13.782;2023-09-19T07:50:14;24.30;;;7.03;;
79149;SDS011;68563;45.644;13.782;2023-09-19T07:52:44;30.38;;;6.72;;
79149;SDS011;68563;45.644;13.782;2023-09-19T07:55:10;28.08;;;6.35;;
79149;SDS011;68563;45.644;13.782;2023-09-19T07:57:41;21.27;;;6.30;;
79149;SDS011;68563;45.644;13.782;2023-09-19T08:00:08;23.80;;;5.47;;
79149;SDS011;68563;45.644;13.782;2023-09-19T08:02:38;19.45;;;5.65;;
79149;SDS011;68563;45.644;13.782;2023-09-19T08:05:04;18.52;;;5.50;;
79149;SDS011;68563;45.644;13.782;2023-09-19T08:07:39;22.30;;;5.70;;
79149;SDS011;68563;45.644;13.782;2023-09-19T08:10:06;21.17;;;5.43;;
79149;SDS011;68563;45.644;13.782;2023-09-19T08:12:40;27.55;;;5.63;;
79149;SDS011;68563;45.644;13.782;2023-09-19T08:15:20;23.50;;;5.72;;
79149;SDS011;68563;45.644;13.782;2023-09-19T08:17:45;19.58;;;4.95;;
79149;SDS011;68563;45.644;13.782;2023-09-19T08:20:12;31.02;;;5.00;;
79149;SDS011;68563;45.644;13.782;2023-09-19T08:22:44;16.83;;;4.70;;
79149;SDS011;68563;45.644;13.782;2023-09-19T08:25:13;21.13;;;4.65;;
79149;SDS011;68563;45.644;13.782;2023-09-19T08:27:42;20.08;;;4.75;;
79149;SDS011;68563;45.644;13.782;2023-09-19T08:30:11;21.73;;;4.90;;
79149;SDS011;68563;45.644;13.782;2023-09-19T08:32:36;22.33;;;4.97;;
79149;SDS011;68563;45.644;13.782;2023-09-19T08:35:02;18.83;;;4.80;;
79149;SDS011;68563;45.644;13.782;2023-09-19T08:37:29;18.38;;;4.25;;
79149;SDS011;68563;45.644;13.782;2023-09-19T08:39:55;16.77;;;4.43;;
79149;SDS011;68563;45.644;13.782;2023-09-19T08:42:20;15.13;;;4.35;;
79149;SDS011;68563;45.644;13.782;2023-09-19T08:44:46;15.70;;;4.45;;
79149;SDS011;68563;45.644;13.782;2023-09-19T08:47:13;16.20;;;4.40;;
79149;SDS011;68563;45.644;13.782;2023-09-19T08:52:42;17.85;;;4.20;;
79149;SDS011;68563;45.644;13.782;2023-09-19T08:55:12;18.77;;;5.32;;
79149;SDS011;68563;45.644;13.782;2023-09-19T08:57:45;17.23;;;4.28;;
79149;SDS011;68563;45.644;13.782;2023-09-19T09:00:14;16.83;;;4.88;;
79149;SDS011;68563;45.644;13.782;2023-09-19T09:02:42;16.48;;;4.20;;
79149;SDS011;68563;45.644;13.782;2023-09-19T09:05:11;13.27;;;4.03;;
79149;SDS011;68563;45.644;13.782;2023-09-19T09:07:37;18.30;;;4.65;;
79149;SDS011;68563;45.644;13.782;2023-09-19T09:10:04;25.70;;;4.82;;
79149;SDS011;68563;45.644;13.782;2023-09-19T09:12:30;19.90;;;4.65;;
79149;SDS011;68563;45.644;13.782;2023-09-19T09:14:56;17.75;;;4.65;;
79149;SDS011;68563;45.644;13.782;2023-09-19T09:17:22;14.30;;;4.28;;
79149;SDS011;68563;45.644;13.782;2023-09-19T09:19:53;14.18;;;4.30;;
79149;SDS011;68563;45.644;13.782;2023-09-19T09:22:18;20.90;;;4.97;;
79149;SDS011;68563;45.644;13.782;2023-09-19T09:24:56;13.98;;;4.03;;
79149;SDS011;68563;45.644;13.782;2023-09-19T09:27:23;20.45;;;4.80;;
79149;SDS011;68563;45.644;13.782;2023-09-19T09:29:49;22.08;;;5.00;;
79149;SDS011;68563;45.644;13.782;2023-09-19T09:32:19;22.52;;;5.32;;
79149;SDS011;68563;45.644;13.782;2023-09-19T09:34:47;16.80;;;4.10;;
79149;SDS011;68563;45.644;13.782;2023-09-19T09:37:15;11.70;;;3.92;;
79149;SDS011;68563;45.644;13.782;2023-09-19T09:48:14;17.83;;;5.10;;
79149;SDS011;68563;45.644;13.782;2023-09-19T09:50:46;19.80;;;5.05;;
79149;SDS011;68563;45.644;13.782;2023-09-19T09:55:57;15.35;;;4.05;;
79149;SDS011;68563;45.644;13.782;2023-09-19T09:58:32;18.10;;;4.75;;
79149;SDS011;68563;45.644;13.782;2023-09-19T10:01:02;9.40;;;2.88;;
79149;SDS011;68563;45.644;13.782;2023-09-19T10:03:39;4.05;;;1.90;;
79149;SDS011;68563;45.644;13.782;2023-09-19T10:06:06;6.65;;;2.00;;
79149;SDS011;68563;45.644;13.782;2023-09-19T10:09:05;5.15;;;1.60;;
79149;SDS011;68563;45.644;13.782;2023-09-19T10:11:31;3.13;;;1.35;;
79149;SDS011;68563;45.644;13.782;2023-09-19T10:13:58;5.53;;;1.42;;
79149;SDS011;68563;45.644;13.782;2023-09-19T10:16:31;4.05;;;1.80;;
79149;SDS011;68563;45.644;13.782;2023-09-19T10:18:58;2.67;;;1.50;;
79149;SDS011;68563;45.644;13.782;2023-09-19T10:21:28;4.30;;;1.88;;
79149;SDS011;68563;45.644;13.782;2023-09-19T10:23:55;3.20;;;1.70;;
79149;SDS011;68563;45.644;13.782;2023-09-19T10:28:51;2.22;;;1.48;;
79149;SDS011;68563;45.644;13.782;2023-09-19T10:31:19;5.50;;;1.70;;
79149;SDS011;68563;45.644;13.782;2023-09-19T10:33:49;2.47;;;1.30;;
79149;SDS011;68563;45.644;13.782;2023-09-19T10:36:15;1.95;;;1.20;;
79149;SDS011;68563;45.644;13.782;2023-09-19T10:38:43;4.72;;;1.23;;
79149;SDS011;68563;45.644;13.782;2023-09-19T10:41:11;4.05;;;1.20;;
79149;SDS011;68563;45.644;13.782;2023-09-19T10:43:41;2.67;;;1.27;;
79149;SDS011;68563;45.644;13.782;2023-09-19T10:46:10;3.47;;;1.20;;
79149;SDS011;68563;45.644;13.782;2023-09-19T10:48:37;2.55;;;1.27;;
79149;SDS011;68563;45.644;13.782;2023-09-19T10:53:41;4.90;;;1.40;;
79149;SDS011;68563;45.644;13.782;2023-09-19T10:56:15;5.53;;;1.70;;
79149;SDS011;68563;45.644;13.782;2023-09-19T10:58:46;4.15;;;1.35;;
79149;SDS011;68563;45.644;13.782;2023-09-19T11:01:14;1.75;;;1.00;;
79149;SDS011;68563;45.644;13.782;2023-09-19T11:03:41;2.28;;;1.40;;
79149;SDS011;68563;45.644;13.782;2023-09-19T11:06:11;2.50;;;1.30;;
79149;SDS011;68563;45.644;13.782;2023-09-19T11:08:54;2.45;;;1.20;;
79149;SDS011;68563;45.644;13.782;2023-09-19T11:11:47;3.17;;;1.58;;
79149;SDS011;68563;45.644;13.782;2023-09-19T11:36:06;3.95;;;1.38;;
79149;SDS011;68563;45.644;13.782;2023-09-19T11:46:52;3.67;;;1.42;;
79149;SDS011;68563;45.644;13.782;2023-09-19T11:49:24;2.70;;;1.13;;
79149;SDS011;68563;45.644;13.782;2023-09-19T11:54:20;3.08;;;1.40;;
79149;SDS011;68563;45.644;13.782;2023-09-19T11:56:52;9.40;;;1.80;;
79149;SDS011;68563;45.644;13.782;2023-09-19T11:59:26;4.13;;;1.60;;
79149;SDS011;68563;45.644;13.782;2023-09-19T12:01:56;4.55;;;1.90;;
79149;SDS011;68563;45.644;13.782;2023-09-19T12:07:10;3.05;;;1.00;;
79149;SDS011;68563;45.644;13.782;2023-09-19T12:10:02;2.78;;;1.20;;
79149;SDS011;68563;45.644;13.782;2023-09-19T12:12:29;4.72;;;1.13;;
79149;SDS011;68563;45.644;13.782;2023-09-19T12:14:56;5.80;;;1.55;;
79149;SDS011;68563;45.644;13.782;2023-09-19T12:17:23;4.00;;;1.30;;
79149;SDS011;68563;45.644;13.782;2023-09-19T12:20:01;3.70;;;1.40;;
79149;SDS011;68563;45.644;13.782;2023-09-19T12:22:44;2.33;;;1.23;;
79149;SDS011;68563;45.644;13.782;2023-09-19T12:25:15;5.60;;;1.20;;
79149;SDS011;68563;45.644;13.782;2023-09-19T12:30:09;4.05;;;1.15;;
79149;SDS011;68563;45.644;13.782;2023-09-19T12:32:39;2.63;;;0.95;;
79149;SDS011;68563;45.644;13.782;2023-09-19T12:35:08;4.13;;;1.27;;
79149;SDS011;68563;45.644;13.782;2023-09-19T12:37:36;2.58;;;1.10;;
79149;SDS011;68563;45.644;13.782;2023-09-19T12:40:06;3.15;;;1.30;;
79149;SDS011;68563;45.644;13.782;2023-09-19T12:42:47;7.03;;;1.52;;
79149;SDS011;68563;45.644;13.782;2023-09-19T12:45:14;3.63;;;1.20;;
79149;SDS011;68563;45.644;13.782;2023-09-19T12:48:25;4.18;;;1.40;;
79149;SDS011;68563;45.644;13.782;2023-09-19T12:53:31;5.88;;;1.88;;
79149;SDS011;68563;45.644;13.782;2023-09-19T12:55:58;6.65;;;1.80;;
79149;SDS011;68563;45.644;13.782;2023-09-19T12:58:24;5.70;;;2.13;;
79149;SDS011;68563;45.644;13.782;2023-09-19T13:00:50;8.75;;;2.53;;
79149;SDS011;68563;45.644;13.782;2023-09-19T13:03:26;7.10;;;2.38;;
79149;SDS011;68563;45.644;13.782;2023-09-19T13:06:02;8.45;;;2.38;;
79149;SDS011;68563;45.644;13.782;2023-09-19T13:08:35;5.30;;;2.10;;
79149;SDS011;68563;45.644;13.782;2023-09-19T13:11:13;6.75;;;2.55;;
79149;SDS011;68563;45.644;13.782;2023-09-19T13:13:51;10.40;;;3.00;;
79149;SDS011;68563;45.644;13.782;2023-09-19T13:16:53;12.45;;;3.40;;
79149;SDS011;68563;45.644;13.782;2023-09-19T13:22:05;10.02;;;3.22;;
79149;SDS011;68563;45.644;13.782;2023-09-19T13:24:51;8.32;;;3.17;;
79149;SDS011;68563;45.644;13.782;2023-09-19T13:27:16;9.45;;;3.10;;
79149;SDS011;68563;45.644;13.782;2023-09-19T13:29:42;6.90;;;2.80;;
79149;SDS011;68563;45.644;13.782;2023-09-19T13:32:07;12.05;;;3.75;;
79149;SDS011;68563;45.644;13.782;2023-09-19T13:34:36;12.55;;;3.00;;
79149;SDS011;68563;45.644;13.782;2023-09-19T13:37:02;6.95;;;2.80;;
79149;SDS011;68563;45.644;13.782;2023-09-19T13:39:29;9.32;;;2.67;;
79149;SDS011;68563;45.644;13.782;2023-09-19T13:41:55;5.70;;;2.35;;
79149;SDS011;68563;45.644;13.782;2023-09-19T13:44:20;11.35;;;2.80;;
79149;SDS011;68563;45.644;13.782;2023-09-19T13:46:46;8.05;;;3.08;;
79149;SDS011;68563;45.644;13.782;2023-09-19T13:49:11;6.95;;;3.03;;
79149;SDS011;68563;45.644;13.782;2023-09-19T13:51:37;10.20;;;3.50;;
79149;SDS011;68563;45.644;13.782;2023-09-19T13:54:02;12.38;;;3.08;;
79149;SDS011;68563;45.644;13.782;2023-09-19T13:56:28;11.18;;;3.40;;
79149;SDS011;68563;45.644;13.782;2023-09-19T13:58:53;11.80;;;3.13;;
79149;SDS011;68563;45.644;13.782;2023-09-19T14:01:19;11.05;;;3.42;;
79149;SDS011;68563;45.644;13.782;2023-09-19T14:03:45;10.45;;;3.35;;
79149;SDS011;68563;45.644;13.782;2023-09-19T14:06:15;11.77;;;3.78;;
79149;SDS011;68563;45.644;13.782;2023-09-19T14:08:41;8.93;;;3.20;;
79149;SDS011;68563;45.644;13.782;2023-09-19T14:11:07;10.63;;;3.30;;
79149;SDS011;68563;45.644;13.782;2023-09-19T14:13:33;14.82;;;3.47;;
79149;SDS011;68563;45.644;13.782;2023-09-19T14:16:03;11.15;;;3.40;;
79149;SDS011;68563;45.644;13.782;2023-09-19T14:18:30;11.35;;;3.28;;
79149;SDS011;68563;45.644;13.782;2023-09-19T14:20:55;11.77;;;3.30;;
79149;SDS011;68563;45.644;13.782;2023-09-19T14:23:21;15.73;;;3.47;;
79149;SDS011;68563;45.644;13.782;2023-09-19T14:25:48;11.10;;;3.97;;
79149;SDS011;68563;45.644;13.782;2023-09-19T14:28:13;11.07;;;3.33;;
79149;SDS011;68563;45.644;13.782;2023-09-19T14:30:39;11.55;;;3.35;;
79149;SDS011;68563;45.644;13.782;2023-09-19T14:33:04;8.00;;;3.25;;
79149;SDS011;68563;45.644;13.782;2023-09-19T14:35:31;15.35;;;3.70;;
79149;SDS011;68563;45.644;13.782;2023-09-19T14:37:56;12.80;;;3.10;;
79149;SDS011;68563;45.644;13.782;2023-09-19T14:40:22;15.00;;;3.30;;
79149;SDS011;68563;45.644;13.782;2023-09-19T14:42:47;7.60;;;2.90;;
79149;SDS011;68563;45.644;13.782;2023-09-19T14:45:13;11.05;;;3.00;;
79149;SDS011;68563;45.644;13.782;2023-09-19T14:47:43;13.15;;;3.40;;
79149;SDS011;68563;45.644;13.782;2023-09-19T14:50:08;10.50;;;2.70;;
79149;SDS011;68563;45.644;13.782;2023-09-19T14:52:35;8.98;;;2.83;;
79149;SDS011;68563;45.644;13.782;2023-09-19T14:55:01;8.27;;;3.13;;
79149;SDS011;68563;45.644;13.782;2023-09-19T14:57:27;15.30;;;3.30;;
79149;SDS011;68563;45.644;13.782;2023-09-19T14:59:52;7.88;;;2.88;;
79149;SDS011;68563;45.644;13.782;2023-09-19T15:02:18;14.40;;;3.45;;
79149;SDS011;68563;45.644;13.782;2023-09-19T15:04:44;11.98;;;3.45;;
79149;SDS011;68563;45.644;13.782;2023-09-19T15:07:11;13.52;;;3.53;;
79149;SDS011;68563;45.644;13.782;2023-09-19T15:09:37;12.50;;;3.53;;
79149;SDS011;68563;45.644;13.782;2023-09-19T15:12:03;15.40;;;4.03;;
79149;SDS011;68563;45.644;13.782;2023-09-19T15:14:28;11.13;;;3.53;;
79149;SDS011;68563;45.644;13.782;2023-09-19T15:16:56;10.02;;;3.58;;
79149;SDS011;68563;45.644;13.782;2023-09-19T15:19:22;9.75;;;3.25;;
79149;SDS011;68563;45.644;13.782;2023-09-19T15:21:47;11.25;;;3.95;;
79149;SDS011;68563;45.644;13.782;2023-09-19T15:24:13;10.40;;;2.90;;
79149;SDS011;68563;45.644;13.782;2023-09-19T15:26:40;10.73;;;3.33;;
79149;SDS011;68563;45.644;13.782;2023-09-19T15:29:05;11.85;;;3.63;;
79149;SDS011;68563;45.644;13.782;2023-09-19T15:31:31;10.23;;;3.33;;
79149;SDS011;68563;45.644;13.782;2023-09-19T15:33:57;8.57;;;2.90;;
79149;SDS011;68563;45.644;13.782;2023-09-19T15:36:23;9.70;;;3.35;;
79149;SDS011;68563;45.644;13.782;2023-09-19T15:39:01;10.82;;;3.13;;
79149;SDS011;68563;45.644;13.782;2023-09-19T15:41:31;13.60;;;3.95;;
79149;SDS011;68563;45.644;13.782;2023-09-19T15:44:02;13.77;;;3.63;;
79149;SDS011;68563;45.644;13.782;2023-09-19T15:46:29;12.00;;;3.17;;
79149;SDS011;68563;45.644;13.782;2023-09-19T15:48:55;11.38;;;3.60;;
79149;SDS011;68563;45.644;13.782;2023-09-19T15:51:22;13.98;;;3.45;;
79149;SDS011;68563;45.644;13.782;2023-09-19T15:53:48;12.63;;;3.90;;
79149;SDS011;68563;45.644;13.782;2023-09-19T15:56:15;14.45;;;5.82;;